Time;durP1;ratioP1;P1;durP2;ratioP2;P2;SDS_P1;SDS_P2;PMS_P1;PMS_P2;Temp;Humidity;BMP_temperature;BMP_pressure;BME280_temperature;BME280_humidity;BME280_pressure;Samples;Min_cycle;Max_cycle;Signal;HPM_P1;HPM_P2
2024/01/03 00:01:24;;;;;;;3.22;0.40;;;;;;;9.39;100.00;97761.97;5206309;28;20487;-76
2024/01/03 00:03:57;;;;;;;1.77;0.30;;;;;;;9.51;100.00;97766.25;5212107;28;20048;-76
2024/01/03 00:06:33;;;;;;;0.95;0.25;;;;;;;9.49;100.00;97779.41;5210056;28;20028;-76
2024/01/03 00:09:04;;;;;;;0.32;0.10;;;;;;;9.57;100.00;97779.66;5207829;28;20035;-75
2024/01/03 00:11:34;;;;;;;2.25;0.32;;;;;;;9.56;100.00;97762.38;5205141;28;20690;-76
2024/01/03 00:14:07;;;;;;;0.75;0.20;;;;;;;9.78;100.00;97766.75;5213032;28;20511;-76
2024/01/03 00:16:41;;;;;;;1.90;0.30;;;;;;;9.68;100.00;97765.81;5206809;28;20021;-76
2024/01/03 00:19:18;;;;;;;1.42;0.20;;;;;;;9.73;100.00;97758.44;5206421;28;20543;-76
2024/01/03 00:21:49;;;;;;;1.75;0.20;;;;;;;9.65;100.00;97756.44;5204995;28;20029;-76
2024/01/03 00:24:19;;;;;;;1.23;0.30;;;;;;;9.56;100.00;97769.34;5209929;28;20509;-76
2024/01/03 00:26:50;;;;;;;0.82;0.17;;;;;;;9.55;100.00;97759.88;5206312;28;20059;-76
2024/01/03 00:29:23;;;;;;;1.52;0.30;;;;;;;9.51;100.00;97763.66;5206279;28;20060;-76
2024/01/03 00:31:54;;;;;;;2.40;0.40;;;;;;;9.51;100.00;97777.50;5205010;28;20044;-76
2024/01/03 00:34:43;;;;;;;1.13;0.20;;;;;;;9.51;100.00;97781.91;5209257;28;20399;-77
2024/01/03 00:37:16;;;;;;;0.82;0.30;;;;;;;9.51;100.00;97784.50;5206351;28;20040;-76
2024/01/03 00:39:46;;;;;;;0.77;0.25;;;;;;;9.54;100.00;97789.47;5206056;28;20029;-76
2024/01/03 00:42:17;;;;;;;1.60;0.40;;;;;;;9.58;100.00;97777.88;5208308;28;20501;-76
2024/01/03 00:44:47;;;;;;;2.20;0.70;;;;;;;9.55;100.00;97783.31;5212038;28;20025;-75
2024/01/03 00:47:19;;;;;;;1.67;0.70;;;;;;;9.56;100.00;97774.56;5212014;28;20025;-76
2024/01/03 00:49:50;;;;;;;4.28;0.75;;;;;;;9.51;100.00;97777.50;5207273;28;20414;-76
2024/01/03 00:52:20;;;;;;;2.65;0.40;;;;;;;9.55;100.00;97783.31;5206068;28;20029;-76
2024/01/03 00:54:51;;;;;;;1.15;0.25;;;;;;;9.44;100.00;97783.28;5204844;28;20039;-76
2024/01/03 00:57:23;;;;;;;3.33;0.60;;;;;;;9.37;100.00;97776.91;5206590;28;20236;-77
2024/01/03 00:59:53;;;;;;;4.22;0.80;;;;;;;9.32;100.00;97769.41;5204996;28;20025;-76
2024/01/03 01:02:23;;;;;;;3.22;0.80;;;;;;;9.36;100.00;97770.03;5209039;28;20036;-77
2024/01/03 01:04:54;;;;;;;3.70;0.52;;;;;;;9.37;100.00;97785.56;5205799;28;20063;-76
2024/01/03 01:07:24;;;;;;;2.05;0.60;;;;;;;9.30;100.00;97779.13;5205275;28;20561;-76
2024/01/03 01:09:55;;;;;;;2.42;0.60;;;;;;;9.24;100.00;97783.97;5209060;28;20067;-76
2024/01/03 01:12:25;;;;;;;4.78;0.40;;;;;;;9.29;100.00;97768.84;5209068;28;20483;-76
2024/01/03 01:14:55;;;;;;;6.10;1.20;;;;;;;9.21;100.00;97774.63;5205156;28;20025;-76
2024/01/03 01:17:26;;;;;;;6.53;0.60;;;;;;;9.23;100.00;97777.09;5204659;28;20025;-76
2024/01/03 01:19:56;;;;;;;4.43;0.95;;;;;;;9.27;100.00;97781.13;5206104;28;20104;-76
2024/01/03 01:22:26;;;;;;;8.10;1.05;;;;;;;9.34;100.00;97774.53;5208174;28;20062;-76
2024/01/03 01:24:56;;;;;;;7.72;0.90;;;;;;;9.39;100.00;97772.38;5204477;28;20032;-76
2024/01/03 01:27:27;;;;;;;8.55;1.35;;;;;;;9.55;100.00;97768.53;5204580;28;20491;-76
2024/01/03 01:29:57;;;;;;;7.15;1.10;;;;;;;9.54;100.00;97782.50;5205163;28;20166;-76
2024/01/03 01:32:27;;;;;;;5.45;0.90;;;;;;;9.64;100.00;97780.84;5208321;28;20046;-76
2024/01/03 01:34:58;;;;;;;11.55;1.27;;;;;;;9.63;100.00;97783.59;5208072;28;20036;-75
2024/01/03 01:37:28;;;;;;;6.05;1.30;;;;;;;9.61;100.00;97794.13;5204805;28;20566;-76
2024/01/03 01:39:58;;;;;;;6.70;1.27;;;;;;;9.70;100.00;97776.94;5206850;28;20052;-76
2024/01/03 01:42:30;;;;;;;10.20;1.50;;;;;;;9.70;100.00;97790.81;5208539;28;20032;-76
2024/01/03 01:45:01;;;;;;;10.32;1.70;;;;;;;9.82;100.00;97799.47;5207350;28;20386;-75
2024/01/03 01:47:32;;;;;;;8.98;1.17;;;;;;;9.79;100.00;97800.53;5204119;28;20041;-75
2024/01/03 01:50:02;;;;;;;5.95;1.15;;;;;;;9.84;100.00;97811.44;5201007;28;20052;-75
2024/01/03 01:52:33;;;;;;;7.20;1.10;;;;;;;9.88;100.00;97801.59;5207994;28;20028;-75
2024/01/03 01:55:04;;;;;;;8.82;0.90;;;;;;;9.87;100.00;97813.00;5203169;28;20037;-76
2024/01/03 01:57:36;;;;;;;9.27;1.08;;;;;;;9.90;100.00;97804.91;5197309;28;20511;-74
2024/01/03 02:00:07;;;;;;;6.95;0.98;;;;;;;10.00;100.00;97801.47;5204188;28;20466;-76
2024/01/03 02:02:39;;;;;;;12.32;1.00;;;;;;;9.99;100.00;97809.44;5202740;28;20061;-76
2024/01/03 02:05:10;;;;;;;14.35;1.00;;;;;;;9.97;100.00;97795.69;5204227;28;20027;-76
2024/01/03 02:07:40;;;;;;;5.43;1.00;;;;;;;9.97;100.00;97806.94;5206706;28;20037;-76
2024/01/03 02:10:11;;;;;;;7.18;1.13;;;;;;;10.03;100.00;97805.69;5206740;28;20490;-76
2024/01/03 02:12:41;;;;;;;10.30;1.35;;;;;;;10.05;100.00;97809.84;5209947;28;20029;-75
2024/01/03 02:15:11;;;;;;;6.30;1.20;;;;;;;10.03;100.00;97803.88;5205934;28;20435;-76
2024/01/03 02:17:42;;;;;;;6.85;1.08;;;;;;;10.10;100.00;97797.25;5208744;28;20666;-75
2024/01/03 02:20:12;;;;;;;7.43;0.80;;;;;;;10.18;100.00;97797.47;5204546;28;20025;-75
2024/01/03 02:22:43;;;;;;;1.90;0.65;;;;;;;10.15;100.00;97797.72;5206523;28;20394;-76
2024/01/03 02:25:14;;;;;;;4.60;0.85;;;;;;;10.16;100.00;97795.97;5202413;28;20184;-76
2024/01/03 02:27:44;;;;;;;5.68;0.73;;;;;;;10.17;100.00;97792.41;5206516;28;20043;-75
2024/01/03 02:30:15;;;;;;;5.10;0.75;;;;;;;10.19;100.00;97800.94;5205385;28;20029;-76
2024/01/03 02:32:45;;;;;;;6.18;0.82;;;;;;;10.20;100.00;97792.97;5206117;28;20036;-76
2024/01/03 02:35:16;;;;;;;7.10;0.82;;;;;;;10.20;100.00;97790.34;5204593;28;20569;-76
2024/01/03 02:37:46;;;;;;;6.78;1.23;;;;;;;10.24;100.00;97785.72;5205888;28;20065;-74
2024/01/03 02:40:16;;;;;;;5.50;1.10;;;;;;;10.38;99.92;97795.91;5205372;28;20087;-75
2024/01/03 02:42:47;;;;;;;8.23;1.27;;;;;;;10.42;98.76;97794.72;5207832;28;20035;-74
2024/01/03 02:45:17;;;;;;;8.95;1.77;;;;;;;10.47;96.41;97787.34;5202975;28;20027;-75
2024/01/03 02:47:47;;;;;;;8.70;1.60;;;;;;;10.49;96.71;97793.31;5206869;28;20445;-74
2024/01/03 02:50:17;;;;;;;7.00;1.10;;;;;;;10.43;96.16;97807.66;5204774;28;20049;-76
2024/01/03 02:52:48;;;;;;;4.88;1.08;;;;;;;10.42;96.46;97798.19;5204974;28;20044;-74
2024/01/03 02:55:18;;;;;;;7.25;1.00;;;;;;;10.54;96.23;97796.38;5206116;28;20048;-75
2024/01/03 02:57:48;;;;;;;7.55;1.40;;;;;;;10.60;94.37;97803.69;5205600;28;20305;-73
2024/01/03 03:00:19;;;;;;;7.22;1.30;;;;;;;10.72;93.61;97800.94;5206405;28;20034;-75
2024/01/03 03:02:50;;;;;;;9.18;1.48;;;;;;;10.69;93.43;97813.44;5210205;28;20045;-74
2024/01/03 03:05:20;;;;;;;6.75;0.82;;;;;;;10.69;93.30;97805.59;5211875;28;20026;-76
2024/01/03 03:07:50;;;;;;;7.82;1.00;;;;;;;10.71;92.84;97816.75;5210553;28;20337;-74
2024/01/03 03:10:20;;;;;;;4.68;0.98;;;;;;;10.81;92.25;97804.59;5216170;28;20498;-75
2024/01/03 03:12:51;;;;;;;4.28;0.80;;;;;;;10.85;91.67;97813.84;5213853;28;20033;-75
2024/01/03 03:15:21;;;;;;;7.93;1.08;;;;;;;10.78;92.60;97829.19;5211803;28;20371;-76
2024/01/03 03:17:51;;;;;;;4.10;0.80;;;;;;;10.89;89.94;97815.25;5211649;28;20336;-75
2024/01/03 03:20:21;;;;;;;6.80;0.98;;;;;;;10.96;89.67;97814.66;5226879;28;20032;-76
2024/01/03 03:22:52;;;;;;;8.85;0.93;;;;;;;10.93;90.06;97814.91;5207580;28;20028;-75
2024/01/03 03:25:22;;;;;;;7.30;1.10;;;;;;;10.93;89.98;97821.91;5213581;28;20117;-74
2024/01/03 03:27:52;;;;;;;7.65;1.23;;;;;;;10.90;90.75;97824.75;5208214;28;20646;-75
2024/01/03 03:30:23;;;;;;;6.07;0.82;;;;;;;10.86;91.87;97812.91;5212122;28;20029;-76
2024/01/03 03:32:53;;;;;;;6.47;1.40;;;;;;;10.84;93.24;97809.59;5210450;28;20120;-75
2024/01/03 03:35:23;;;;;;;12.18;1.63;;;;;;;10.78;93.33;97810.06;5213658;28;20123;-75
2024/01/03 03:37:54;;;;;;;7.45;1.55;;;;;;;10.76;94.66;97807.59;5208640;28;20036;-75
2024/01/03 03:40:24;;;;;;;6.70;1.42;;;;;;;10.74;94.83;97812.13;5206076;28;20122;-76
2024/01/03 03:42:55;;;;;;;6.80;1.52;;;;;;;10.74;95.10;97799.06;5211647;28;20022;-75
2024/01/03 03:45:25;;;;;;;6.45;1.40;;;;;;;10.68;95.24;97820.41;5212975;28;20127;-75
2024/01/03 03:47:55;;;;;;;11.77;2.33;;;;;;;10.53;96.60;97815.59;5211151;28;20550;-75
2024/01/03 03:50:26;;;;;;;6.32;1.77;;;;;;;10.54;97.16;97817.25;5209290;28;20052;-76
2024/01/03 03:52:56;;;;;;;7.20;1.40;;;;;;;10.59;95.84;97825.53;5209863;28;20021;-75
2024/01/03 03:55:26;;;;;;;10.25;1.80;;;;;;;10.62;95.78;97828.75;5204388;28;20025;-75
2024/01/03 03:57:56;;;;;;;11.00;2.20;;;;;;;10.58;96.22;97822.13;5207920;28;20033;-75
2024/01/03 04:00:27;;;;;;;10.43;2.00;;;;;;;10.62;94.32;97828.75;5210326;28;20491;-75
2024/01/03 04:02:57;;;;;;;7.85;1.40;;;;;;;10.62;95.10;97841.81;5210587;28;20025;-75
2024/01/03 04:05:27;;;;;;;12.27;1.73;;;;;;;10.69;95.07;97842.16;5206689;28;20021;-75
2024/01/03 04:07:57;;;;;;;6.95;1.50;;;;;;;10.67;95.56;97836.22;5210213;28;20111;-75
2024/01/03 04:10:28;;;;;;;9.45;1.45;;;;;;;10.68;96.40;97838.69;5208313;28;20025;-75
2024/01/03 04:12:59;;;;;;;6.13;1.35;;;;;;;10.58;97.68;97850.00;5215945;28;20016;-75
2024/01/03 04:15:29;;;;;;;11.18;1.38;;;;;;;10.58;96.81;97850.00;5217458;28;20571;-75
2024/01/03 04:18:02;;;;;;;6.28;1.23;;;;;;;10.53;96.20;97836.47;5213506;28;20024;-75
2024/01/03 04:20:32;;;;;;;7.32;1.00;;;;;;;10.61;97.37;97831.47;5205643;28;20049;-75
2024/01/03 04:23:03;;;;;;;10.38;1.45;;;;;;;10.51;96.47;97844.44;5206810;28;20470;-73
2024/01/03 04:25:33;;;;;;;6.55;1.42;;;;;;;10.53;97.00;97846.94;5210659;28;20478;-75
2024/01/03 04:28:04;;;;;;;10.38;1.30;;;;;;;10.53;96.27;97844.31;5212151;28;20025;-75
2024/01/03 04:30:34;;;;;;;10.77;1.50;;;;;;;10.62;95.75;97830.53;5213653;28;20483;-75
2024/01/03 04:33:05;;;;;;;6.05;1.17;;;;;;;10.56;97.23;97836.25;5207056;28;20025;-75
2024/01/03 04:35:35;;;;;;;7.03;1.13;;;;;;;10.50;97.65;97852.41;5209411;28;20060;-75
2024/01/03 04:38:06;;;;;;;10.23;1.50;;;;;;;10.56;96.26;97849.28;5205444;28;20045;-75
2024/01/03 04:40:37;;;;;;;12.90;1.20;;;;;;;10.47;96.40;97853.47;5209008;28;20045;-74
2024/01/03 04:43:08;;;;;;;7.47;0.90;;;;;;;10.58;94.90;97855.22;5208001;28;20032;-75
2024/01/03 04:45:38;;;;;;;8.45;1.10;;;;;;;10.57;95.43;97845.72;5213878;28;20021;-75
2024/01/03 04:48:08;;;;;;;5.63;1.20;;;;;;;10.57;95.12;97856.19;5212786;28;20068;-75
2024/01/03 04:50:39;;;;;;;5.95;0.85;;;;;;;10.55;94.80;97855.47;5212687;28;20029;-75
2024/01/03 04:53:09;;;;;;;8.25;1.38;;;;;;;10.56;94.62;97846.69;5208032;28;20025;-75
2024/01/03 04:55:39;;;;;;;6.55;0.85;;;;;;;10.57;93.10;97845.72;5211475;28;20112;-75
2024/01/03 04:58:09;;;;;;;7.88;1.20;;;;;;;10.53;94.16;97846.94;5205079;28;20067;-75
2024/01/03 05:00:40;;;;;;;7.43;1.02;;;;;;;10.58;93.58;97855.22;5208273;28;20040;-74
2024/01/03 05:03:11;;;;;;;6.95;1.20;;;;;;;10.60;93.21;97855.94;5206504;28;20135;-74
2024/01/03 05:05:42;;;;;;;7.68;1.40;;;;;;;10.60;92.67;97861.16;5206351;28;20043;-74
2024/01/03 05:08:12;;;;;;;7.22;0.95;;;;;;;10.54;92.77;97862.47;5204606;28;20036;-75
2024/01/03 05:10:43;;;;;;;8.25;1.17;;;;;;;10.58;93.37;97869.13;5207735;28;20040;-74
2024/01/03 05:13:13;;;;;;;7.05;0.98;;;;;;;10.59;92.58;97862.09;5204417;28;20028;-75
2024/01/03 05:15:44;;;;;;;6.55;1.10;;;;;;;10.55;93.78;97858.88;5205551;28;20033;-74
2024/01/03 05:18:14;;;;;;;5.35;1.00;;;;;;;10.55;93.55;97865.91;5210443;28;20104;-75
2024/01/03 05:20:44;;;;;;;9.48;0.80;;;;;;;10.63;93.12;97864.34;5209951;28;20041;-74
2024/01/03 05:23:15;;;;;;;8.95;1.08;;;;;;;10.61;93.99;97860.19;5207569;28;20033;-74
2024/01/03 05:25:47;;;;;;;6.20;1.20;;;;;;;10.62;93.32;97859.25;5205109;28;20033;-75
2024/01/03 05:28:17;;;;;;;4.47;0.63;;;;;;;10.64;93.24;97866.00;5207531;28;21069;-75
2024/01/03 05:30:47;;;;;;;9.82;1.27;;;;;;;10.64;93.79;97871.25;5208716;28;20115;-75
2024/01/03 05:33:18;;;;;;;5.97;1.00;;;;;;;10.70;91.25;97872.53;5207007;28;20506;-74
2024/01/03 05:35:48;;;;;;;5.65;1.10;;;;;;;10.75;91.42;97873.00;5206008;28;20040;-75
2024/01/03 05:38:18;;;;;;;7.72;1.17;;;;;;;10.76;91.02;97872.03;5206009;28;20027;-74
2024/01/03 05:40:50;;;;;;;3.65;0.73;;;;;;;10.76;90.34;97874.66;5206886;28;20033;-75
2024/01/03 05:43:21;;;;;;;5.10;0.80;;;;;;;10.81;89.43;97872.50;5204509;28;20029;-74
2024/01/03 05:45:51;;;;;;;4.57;0.50;;;;;;;10.88;89.42;97863.25;5206834;28;20120;-74
2024/01/03 05:48:22;;;;;;;4.07;1.00;;;;;;;10.86;89.97;97886.06;5203409;28;20120;-75
2024/01/03 05:50:52;;;;;;;8.68;0.90;;;;;;;10.82;90.15;97880.22;5206189;28;20611;-74
2024/01/03 05:53:22;;;;;;;7.25;1.27;;;;;;;10.85;89.42;97887.00;5206323;28;20025;-75
2024/01/03 05:55:52;;;;;;;7.40;1.02;;;;;;;10.81;90.55;97903.84;5205217;28;20028;-74
2024/01/03 05:58:23;;;;;;;4.45;0.90;;;;;;;10.82;91.18;97895.09;5206145;28;20124;-75
2024/01/03 06:00:53;;;;;;;6.47;1.40;;;;;;;10.76;91.86;97900.78;5207514;28;20033;-75
2024/01/03 06:03:23;;;;;;;3.92;0.75;;;;;;;10.72;91.99;97905.41;5204287;28;20049;-75
2024/01/03 06:05:54;;;;;;;3.08;0.88;;;;;;;10.77;92.84;97897.22;5206262;28;20513;-75
2024/01/03 06:08:24;;;;;;;2.35;0.70;;;;;;;10.73;92.64;97895.81;5204484;28;20059;-75
2024/01/03 06:10:55;;;;;;;3.10;0.77;;;;;;;10.72;92.91;97905.41;5207518;28;20059;-75
2024/01/03 06:13:25;;;;;;;5.35;0.90;;;;;;;10.59;94.10;97898.66;5208819;28;20121;-74
2024/01/03 06:15:55;;;;;;;3.65;0.73;;;;;;;10.59;94.02;97916.94;5212676;28;20528;-75
2024/01/03 06:18:26;;;;;;;4.28;1.08;;;;;;;10.56;94.82;97906.75;5208397;28;20025;-74
2024/01/03 06:20:56;;;;;;;2.72;0.63;;;;;;;10.52;95.58;97913.16;5208613;28;20134;-75
2024/01/03 06:23:26;;;;;;;4.65;0.65;;;;;;;10.40;96.24;97911.47;5202865;28;20362;-74
2024/01/03 06:25:56;;;;;;;7.15;1.00;;;;;;;10.41;96.13;97900.09;5208101;28;20040;-75
2024/01/03 06:28:27;;;;;;;3.75;0.80;;;;;;;10.38;97.09;97908.16;5205001;28;21442;-75
2024/01/03 06:30:57;;;;;;;2.83;1.08;;;;;;;10.37;97.87;97909.13;5201044;28;20053;-75
2024/01/03 06:33:27;;;;;;;7.18;0.93;;;;;;;10.37;97.60;97912.53;5206109;28;20922;-74
2024/01/03 06:35:59;;;;;;;5.40;0.95;;;;;;;10.38;97.56;97908.16;5208495;28;20025;-74
2024/01/03 06:38:29;;;;;;;4.55;0.60;;;;;;;10.39;97.48;97917.66;5209501;28;20099;-75
2024/01/03 06:40:59;;;;;;;7.93;1.30;;;;;;;10.34;97.45;97918.00;5211646;28;20474;-75
2024/01/03 06:43:29;;;;;;;4.82;1.00;;;;;;;10.41;96.35;97913.16;5209271;28;20040;-75
2024/01/03 06:46:00;;;;;;;6.78;1.10;;;;;;;10.38;95.71;97919.41;5214528;28;20120;-75
2024/01/03 06:48:30;;;;;;;5.95;1.25;;;;;;;10.45;95.48;97927.63;5207761;28;20029;-75
2024/01/03 06:51:03;;;;;;;6.50;1.00;;;;;;;10.47;95.10;97925.72;5208917;28;21190;-75
2024/01/03 06:53:34;;;;;;;3.00;0.90;;;;;;;10.51;93.67;97927.97;5207092;28;20086;-75
2024/01/03 06:56:04;;;;;;;9.80;1.52;;;;;;;10.49;93.94;97926.44;5211254;28;20025;-75
2024/01/03 06:58:35;;;;;;;4.93;1.02;;;;;;;10.46;94.71;97937.09;5209892;28;20036;-75
2024/01/03 07:01:05;;;;;;;5.80;1.00;;;;;;;10.53;94.30;97933.09;5211820;28;20025;-75
2024/01/03 07:03:35;;;;;;;5.43;1.40;;;;;;;10.57;93.83;97937.13;5212689;28;20029;-75
2024/01/03 07:06:05;;;;;;;5.70;0.80;;;;;;;10.59;93.89;97938.69;5208549;28;20446;-75
2024/01/03 07:08:36;;;;;;;6.18;1.00;;;;;;;10.53;94.15;97951.38;5206279;28;20025;-75
2024/01/03 07:11:06;;;;;;;4.95;0.95;;;;;;;10.51;94.05;97946.25;5207652;28;20028;-75
2024/01/03 07:13:36;;;;;;;3.78;0.82;;;;;;;10.60;93.20;97942.09;5209201;28;20021;-75
2024/01/03 07:16:07;;;;;;;6.32;0.98;;;;;;;10.59;93.02;97959.56;5207316;28;20029;-75
2024/01/03 07:18:37;;;;;;;7.25;1.38;;;;;;;10.67;93.10;97961.59;5207662;28;20490;-75
2024/01/03 07:21:08;;;;;;;6.07;1.40;;;;;;;10.68;93.27;97955.41;5210668;28;20029;-75
2024/01/03 07:23:39;;;;;;;7.25;1.25;;;;;;;10.69;92.78;97951.84;5207336;28;20033;-75
2024/01/03 07:26:09;;;;;;;6.70;1.60;;;;;;;10.66;92.87;97950.28;5205958;28;20142;-75
2024/01/03 07:28:39;;;;;;;4.88;1.10;;;;;;;10.72;92.97;97962.06;5211336;28;20118;-75
2024/01/03 07:31:11;;;;;;;3.88;1.05;;;;;;;10.65;93.30;97963.50;5203381;28;20244;-75
2024/01/03 07:33:41;;;;;;;9.45;1.48;;;;;;;10.61;94.31;97970.72;5209268;28;20546;-75
2024/01/03 07:36:12;;;;;;;4.70;0.88;;;;;;;10.57;94.56;97958.84;5205585;28;20176;-75
2024/01/03 07:38:44;;;;;;;6.30;1.08;;;;;;;10.53;95.28;97972.25;5206312;28;20032;-75
2024/01/03 07:41:21;;;;;;;6.30;1.10;;;;;;;10.48;95.38;97961.34;5204367;28;20478;-74
2024/01/03 07:43:51;;;;;;;8.52;1.13;;;;;;;10.41;96.24;97979.25;5210841;28;20037;-75
2024/01/03 07:46:22;;;;;;;8.52;1.48;;;;;;;10.40;96.51;97977.59;5208464;28;20402;-75
2024/01/03 07:48:53;;;;;;;8.85;1.27;;;;;;;10.35;97.14;97969.25;5207163;28;20476;-74
2024/01/03 07:51:23;;;;;;;6.90;1.20;;;;;;;10.35;97.63;97971.88;5208241;28;20273;-75
2024/01/03 07:53:53;;;;;;;4.22;1.10;;;;;;;10.32;97.93;97969.50;5206070;28;20029;-74
2024/01/03 07:56:23;;;;;;;7.72;1.42;;;;;;;10.29;98.57;97969.72;5207406;28;20029;-75
2024/01/03 07:58:54;;;;;;;6.70;1.02;;;;;;;10.29;97.63;97979.34;5208439;28;20503;-75
2024/01/03 08:01:24;;;;;;;6.90;1.42;;;;;;;10.29;98.38;97974.97;5204211;28;20025;-75
2024/01/03 08:03:55;;;;;;;4.80;0.93;;;;;;;10.35;98.32;97965.84;5208265;28;20025;-75
2024/01/03 08:06:25;;;;;;;4.60;0.82;;;;;;;10.36;98.54;97964.88;5205725;28;20022;-75
2024/01/03 08:08:55;;;;;;;7.80;1.15;;;;;;;10.34;98.44;97969.41;5208385;28;20558;-75
2024/01/03 08:11:26;;;;;;;5.47;1.30;;;;;;;10.46;98.05;97976.25;5204875;28;20079;-75
2024/01/03 08:13:57;;;;;;;6.82;1.25;;;;;;;10.41;98.28;97978.41;5205203;28;20486;-75
2024/01/03 08:16:27;;;;;;;6.45;1.27;;;;;;;10.50;97.35;97972.50;5206971;28;20125;-75
2024/01/03 08:18:57;;;;;;;5.53;1.13;;;;;;;10.56;97.17;97972.88;5208948;28;20104;-75
2024/01/03 08:21:28;;;;;;;10.00;1.73;;;;;;;10.56;97.00;97966.78;5209255;28;20021;-75
2024/01/03 08:23:58;;;;;;;5.63;1.00;;;;;;;10.61;95.38;97969.88;5205317;28;20100;-74
2024/01/03 08:26:29;;;;;;;4.32;0.63;;;;;;;10.65;95.42;97974.75;5203055;28;20021;-74
2024/01/03 08:28:59;;;;;;;4.78;1.02;;;;;;;10.70;94.69;97977.00;5206277;28;20431;-75
2024/01/03 08:31:30;;;;;;;6.45;0.88;;;;;;;10.72;94.27;97975.91;5204405;28;20033;-75
2024/01/03 08:34:00;;;;;;;7.05;1.17;;;;;;;10.80;93.27;97975.34;5206549;28;20514;-75
2024/01/03 08:36:44;;;;;;;8.68;1.20;;;;;;;10.84;93.45;97971.56;5207796;28;20132;-76
2024/01/03 08:39:15;;;;;;;5.15;1.05;;;;;;;10.86;93.36;97967.03;5215562;28;20024;-75
2024/01/03 08:41:47;;;;;;;6.05;1.02;;;;;;;10.84;92.80;97971.56;5215608;28;20043;-75
2024/01/03 08:44:17;;;;;;;6.85;1.27;;;;;;;10.86;92.84;97969.66;5214715;28;20044;-75
2024/01/03 08:46:48;;;;;;;5.07;0.95;;;;;;;10.95;92.85;97968.91;5210121;28;20040;-75
2024/01/03 08:49:18;;;;;;;5.97;1.20;;;;;;;10.88;94.01;97972.97;5205185;28;20044;-75
2024/01/03 08:51:49;;;;;;;6.60;1.83;;;;;;;10.84;94.39;97972.38;5210302;28;20132;-75
2024/01/03 08:54:19;;;;;;;7.70;1.30;;;;;;;10.84;93.51;97971.56;5202227;28;20498;-75
2024/01/03 08:56:50;;;;;;;5.75;1.20;;;;;;;10.93;93.17;97976.03;5204481;28;20102;-75
2024/01/03 08:59:20;;;;;;;5.22;1.10;;;;;;;11.01;91.80;97978.91;5204090;28;20029;-75
2024/01/03 09:01:52;;;;;;;5.95;1.23;;;;;;;11.05;91.36;97984.59;5207725;28;20033;-75
2024/01/03 09:04:23;;;;;;;5.35;1.10;;;;;;;11.06;92.37;97990.63;5207322;28;20037;-75
2024/01/03 09:06:53;;;;;;;8.38;1.30;;;;;;;11.10;92.44;97979.00;5205298;28;20029;-75
2024/01/03 09:09:23;;;;;;;5.40;0.90;;;;;;;11.13;92.06;97989.22;5207942;28;20037;-75
2024/01/03 09:11:55;;;;;;;4.93;1.08;;;;;;;11.11;92.51;97986.72;5209744;28;20132;-74
2024/01/03 09:14:25;;;;;;;3.65;0.95;;;;;;;11.11;93.23;97994.56;5205797;28;20048;-75
2024/01/03 09:16:55;;;;;;;7.55;1.20;;;;;;;11.08;94.66;97993.97;5202018;28;20033;-75
2024/01/03 09:19:26;;;;;;;7.80;1.33;;;;;;;11.03;97.30;98009.16;5199154;28;20118;-74
2024/01/03 09:21:59;;;;;;;3.60;0.90;;;;;;;10.85;98.32;98005.38;5204063;28;20122;-75
2024/01/03 09:24:29;;;;;;;4.88;1.20;;;;;;;10.84;98.80;98005.50;5202878;28;20498;-75
2024/01/03 09:27:00;;;;;;;3.40;1.20;;;;;;;10.86;98.65;98008.84;5202417;28;20029;-75
2024/01/03 09:29:31;;;;;;;4.65;1.10;;;;;;;10.83;98.76;98022.13;5202866;28;20453;-75
2024/01/03 09:32:02;;;;;;;4.60;0.82;;;;;;;10.84;99.10;98008.13;5225857;28;20415;-75
2024/01/03 09:34:37;;;;;;;4.00;1.00;;;;;;;10.90;97.98;98002.41;5207818;28;20025;-75
2024/01/03 09:37:09;;;;;;;4.45;1.20;;;;;;;10.96;97.41;98012.38;5201812;28;20022;-75
2024/01/03 09:39:40;;;;;;;6.78;1.10;;;;;;;10.93;97.47;98018.69;5201203;28;20505;-75
2024/01/03 09:42:11;;;;;;;2.85;0.70;;;;;;;10.98;97.34;98011.31;5204236;28;20281;-75
2024/01/03 09:44:42;;;;;;;3.10;0.80;;;;;;;10.95;98.13;98018.56;5207090;28;20461;-75
2024/01/03 09:47:12;;;;;;;3.33;1.27;;;;;;;10.97;98.75;98020.13;5206417;28;20033;-75
2024/01/03 09:49:45;;;;;;;3.25;0.90;;;;;;;11.03;98.24;98019.63;5210405;28;20021;-74
2024/01/03 09:52:15;;;;;;;6.07;1.13;;;;;;;10.98;98.54;98015.69;5202230;28;20916;-75
2024/01/03 09:54:46;;;;;;;4.53;0.63;;;;;;;10.97;98.16;98016.66;5203025;28;20024;-75
2024/01/03 09:57:20;;;;;;;1.83;0.50;;;;;;;11.03;98.44;98025.69;5199607;28;20026;-75
2024/01/03 09:59:51;;;;;;;3.95;0.60;;;;;;;10.98;98.47;98019.16;5200587;28;20048;-75
2024/01/03 10:02:27;;;;;;;3.35;0.60;;;;;;;10.98;99.08;98019.16;5209472;28;20130;-75
2024/01/03 10:04:57;;;;;;;1.67;0.50;;;;;;;11.03;98.70;98020.47;5208860;28;20021;-75
2024/01/03 10:07:35;;;;;;;2.72;0.50;;;;;;;10.93;100.00;98018.69;5209140;28;20158;-73
2024/01/03 10:10:06;;;;;;;3.20;0.90;;;;;;;10.96;99.75;98022.84;5204245;28;20025;-75
2024/01/03 10:12:36;;;;;;;2.03;0.60;;;;;;;10.87;100.00;98023.56;5206069;28;20036;-75
2024/01/03 10:15:16;;;;;;;2.50;0.50;;;;;;;10.78;100.00;98032.94;5204224;28;20120;-75
2024/01/03 10:17:47;;;;;;;2.17;0.40;;;;;;;10.79;100.00;98025.91;5214718;28;20033;-75
2024/01/03 10:20:24;;;;;;;1.45;0.30;;;;;;;10.73;100.00;98018.56;5205964;28;20057;-75
2024/01/03 10:23:05;;;;;;;3.35;0.80;;;;;;;10.77;100.00;98027.81;5203330;28;20479;-74
2024/01/03 10:25:39;;;;;;;0.88;0.35;;;;;;;10.77;100.00;98033.03;5202010;28;20391;-75
2024/01/03 10:28:16;;;;;;;2.40;0.45;;;;;;;10.69;100.00;98024.97;5203853;28;20064;-75
2024/01/03 10:30:52;;;;;;;3.72;0.60;;;;;;;10.72;100.00;98015.09;5200374;28;20047;-75
2024/01/03 10:33:23;;;;;;;1.90;0.40;;;;;;;10.72;100.00;98019.50;5202855;28;20557;-74
2024/01/03 10:35:53;;;;;;;3.42;0.73;;;;;;;10.79;100.00;98020.69;5200016;28;20053;-74
2024/01/03 10:38:26;;;;;;;1.80;0.30;;;;;;;10.78;100.00;98022.50;5204000;28;20392;-75
2024/01/03 10:40:58;;;;;;;2.55;0.45;;;;;;;10.92;100.00;98017.03;5207967;28;20505;-74
2024/01/03 10:43:30;;;;;;;2.40;0.60;;;;;;;10.88;100.00;98009.53;5201694;28;20044;-74
2024/01/03 10:46:00;;;;;;;2.78;0.30;;;;;;;10.76;100.00;98008.72;5206749;28;20103;-75
2024/01/03 10:48:30;;;;;;;3.92;0.68;;;;;;;10.77;100.00;98006.91;5203824;28;20033;-75
2024/01/03 10:51:01;;;;;;;0.75;0.25;;;;;;;10.78;100.00;98014.66;5205327;28;20041;-74
2024/01/03 10:53:40;;;;;;;0.60;0.17;;;;;;;10.87;100.00;98013.09;5205650;28;20112;-75
2024/01/03 10:56:10;;;;;;;3.05;0.50;;;;;;;10.78;100.00;98003.34;5204433;28;20064;-76
2024/01/03 10:58:41;;;;;;;4.00;0.50;;;;;;;10.83;100.00;97998.63;5207834;28;20470;-74
2024/01/03 11:01:27;;;;;;;1.10;0.20;;;;;;;10.91;100.00;97998.84;5208021;28;20029;-74
2024/01/03 11:04:31;;;;;;;2.58;0.50;;;;;;;10.93;100.00;97991.72;5202768;28;20434;-74
2024/01/03 11:07:14;;;;;;;2.88;0.50;;;;;;;10.91;100.00;97999.69;5198528;28;20033;-74
2024/01/03 11:09:44;;;;;;;4.22;0.47;;;;;;;10.91;100.00;97998.84;5208606;28;20115;-75
2024/01/03 11:12:15;;;;;;;3.95;0.50;;;;;;;10.83;100.00;98009.06;5202771;28;20132;-75
2024/01/03 11:14:45;;;;;;;3.22;0.60;;;;;;;10.88;100.00;98004.31;5202551;28;20541;-75
2024/01/03 11:17:31;;;;;;;2.55;0.55;;;;;;;10.84;100.00;97995.88;5206459;28;20024;-75
2024/01/03 11:20:08;;;;;;;3.85;1.30;;;;;;;10.70;100.00;98008.34;5198588;28;20079;-75
2024/01/03 11:22:55;;;;;;;3.03;0.70;;;;;;;10.67;100.00;98016.44;5200266;28;20037;-75
2024/01/03 11:25:46;;;;;;;6.53;1.00;;;;;;;10.56;100.00;98030.31;5203179;28;20398;-75
2024/01/03 11:28:33;;;;;;;6.38;2.42;;;;;;;10.64;100.00;98050.59;5203953;28;20152;-75
2024/01/03 11:31:04;;;;;;;16.98;7.30;;;;;;;10.46;100.00;98055.44;5197516;28;20061;-75
2024/01/03 11:33:43;;;;;;;8.43;2.25;;;;;;;10.24;100.00;98060.59;5200367;28;20045;-74
2024/01/03 11:36:44;;;;;;;4.93;0.95;;;;;;;10.19;100.00;98048.84;5201581;28;20033;-75
2024/01/03 11:39:42;;;;;;;5.85;1.40;;;;;;;10.19;100.00;98048.84;5201651;28;20041;-75
2024/01/03 11:42:45;;;;;;;5.10;1.10;;;;;;;10.15;100.00;98047.41;5201834;28;20116;-75
2024/01/03 11:45:17;;;;;;;3.00;0.80;;;;;;;10.18;100.00;98050.59;5149444;28;20041;-76
2024/01/03 11:47:49;;;;;;;6.20;1.10;;;;;;;10.21;100.00;98054.78;5206139;28;20036;-75
2024/01/03 11:50:19;;;;;;;6.55;1.33;;;;;;;10.27;100.00;98049.94;5198262;28;20110;-75
2024/01/03 11:52:51;;;;;;;6.15;1.02;;;;;;;10.32;100.00;98049.59;5196390;28;20041;-75